Time;durP1;ratioP1;P1;durP2;ratioP2;P2;SDS_P1;SDS_P2;PMS_P1;PMS_P2;Temp;Humidity;BMP_temperature;BMP_pressure;BME280_temperature;BME280_humidity;BME280_pressure;Samples;Min_cycle;Max_cycle;Signal;HPM_P1;HPM_P2
2022/01/02 00:00:03;;;;;;;368.40;181.15;;;5.20;99.90;;;;;;5076717;28;20055;-60
2022/01/02 00:02:32;;;;;;;377.50;177.65;;;5.10;99.90;;;;;;5076711;28;20041;-60
2022/01/02 00:05:04;;;;;;;407.30;193.45;;;5.10;99.90;;;;;;5076754;28;20040;-60
2022/01/02 00:07:33;;;;;;;427.67;200.35;;;5.10;99.90;;;;;;5076679;28;20036;-61
2022/01/02 00:10:04;;;;;;;424.63;195.55;;;5.00;99.90;;;;;;5076573;28;20107;-61
2022/01/02 00:12:34;;;;;;;392.15;186.70;;;5.00;99.90;;;;;;5075223;28;20059;-60
2022/01/02 00:15:04;;;;;;;381.05;182.00;;;4.90;99.90;;;;;;5095798;28;20486;-60
2022/01/02 00:17:31;;;;;;;418.70;194.53;;;4.90;99.90;;;;;;5092445;28;20401;-61
2022/01/02 00:20:08;;;;;;;388.45;182.38;;;4.80;99.90;;;;;;5076638;28;20036;-61
2022/01/02 00:22:37;;;;;;;387.48;180.50;;;4.80;99.90;;;;;;5076209;28;20486;-61
2022/01/02 00:25:11;;;;;;;456.20;215.45;;;4.70;99.90;;;;;;5076381;28;20040;-61
2022/01/02 00:27:37;;;;;;;426.00;201.63;;;4.60;99.90;;;;;;5076366;28;20129;-61
2022/01/02 00:30:05;;;;;;;429.00;201.32;;;4.70;99.90;;;;;;5076270;28;20494;-61
2022/01/02 00:32:35;;;;;;;445.00;205.60;;;4.70;99.90;;;;;;5071761;28;20078;-61
2022/01/02 00:35:01;;;;;;;752.70;293.30;;;4.70;99.90;;;;;;5076127;28;20036;-60
2022/01/02 00:37:27;;;;;;;650.75;258.80;;;4.70;99.90;;;;;;5057907;28;20037;-60
2022/01/02 00:39:53;;;;;;;606.42;247.68;;;4.70;99.90;;;;;;5057989;28;20516;-61
2022/01/02 00:42:29;;;;;;;609.97;236.18;;;4.60;99.90;;;;;;5091597;28;20033;-60
2022/01/02 00:45:08;;;;;;;564.83;225.50;;;4.50;99.90;;;;;;5075785;28;20047;-60
2022/01/02 00:47:36;;;;;;;473.33;200.45;;;4.40;99.90;;;;;;5075959;28;20039;-60
2022/01/02 00:50:08;;;;;;;484.38;213.15;;;4.30;99.90;;;;;;5076036;28;20036;-60
2022/01/02 00:52:39;;;;;;;894.20;369.30;;;4.30;99.90;;;;;;5075413;28;20042;-59
2022/01/02 00:55:12;;;;;;;877.72;359.20;;;4.30;99.90;;;;;;5057902;28;20033;-60
2022/01/02 00:57:42;;;;;;;686.88;293.52;;;4.30;99.90;;;;;;5075580;28;20123;-60
2022/01/02 01:00:11;;;;;;;550.20;240.32;;;4.30;99.90;;;;;;5075481;28;20036;-60
2022/01/02 01:02:48;;;;;;;645.20;268.08;;;4.30;99.90;;;;;;5075724;28;20025;-60
2022/01/02 01:05:17;;;;;;;593.38;254.52;;;4.30;99.90;;;;;;5057519;28;20042;-60
2022/01/02 01:07:46;;;;;;;;;;;4.20;99.90;;;;;;5058136;28;20064;-60
2022/01/02 01:10:17;;;;;;;574.70;235.32;;;4.10;99.90;;;;;;5075340;28;20456;-60
2022/01/02 01:12:45;;;;;;;596.00;244.80;;;4.10;99.90;;;;;;5057586;28;20033;-60
2022/01/02 01:15:14;;;;;;;495.23;210.43;;;4.00;99.90;;;;;;5073911;28;20048;-63
2022/01/02 01:17:41;;;;;;;540.88;230.40;;;4.10;99.90;;;;;;5105617;28;20047;-63
2022/01/02 01:20:14;;;;;;;555.70;234.48;;;4.10;99.90;;;;;;5074933;28;20040;-62
2022/01/02 01:22:41;;;;;;;591.13;239.38;;;4.00;99.90;;;;;;5056896;28;20422;-62
2022/01/02 01:25:16;;;;;;;628.65;266.00;;;3.90;99.90;;;;;;5072006;28;20064;-62
2022/01/02 01:27:48;;;;;;;535.53;222.20;;;3.80;99.90;;;;;;5056809;28;20055;-62
2022/01/02 01:30:18;;;;;;;543.08;229.20;;;3.80;99.90;;;;;;5057298;28;20425;-62
2022/01/02 01:32:53;;;;;;;426.52;178.82;;;3.80;99.90;;;;;;5074857;28;20417;-63
2022/01/02 01:35:23;;;;;;;343.83;150.10;;;3.80;99.90;;;;;;5074742;28;20098;-63
2022/01/02 01:37:50;;;;;;;415.95;179.50;;;3.70;99.90;;;;;;5056969;28;20047;-62
2022/01/02 01:40:21;;;;;;;400.67;173.77;;;3.70;99.90;;;;;;5056567;28;20112;-62
2022/01/02 01:42:59;;;;;;;382.55;162.75;;;3.60;99.90;;;;;;5056853;28;20129;-62
2022/01/02 01:45:30;;;;;;;384.77;167.25;;;3.60;99.90;;;;;;5056755;28;20047;-62
2022/01/02 01:48:04;;;;;;;364.90;160.52;;;3.60;99.90;;;;;;5056555;28;20032;-62
2022/01/02 01:50:42;;;;;;;407.40;171.88;;;3.60;99.90;;;;;;5056918;28;20409;-61
2022/01/02 01:53:13;;;;;;;347.15;150.55;;;3.60;99.90;;;;;;5056781;28;20049;-62
2022/01/02 01:55:41;;;;;;;289.80;135.35;;;3.60;99.90;;;;;;5056576;28;20036;-62
2022/01/02 01:58:09;;;;;;;306.95;141.05;;;3.60;99.90;;;;;;5040214;28;20048;-62
2022/01/02 02:00:40;;;;;;;320.23;146.10;;;3.50;99.90;;;;;;5056706;28;20036;-62
2022/01/02 02:03:14;;;;;;;317.23;142.30;;;3.50;99.90;;;;;;5056350;28;20371;-62
2022/01/02 02:05:42;;;;;;;332.73;149.07;;;3.50;99.90;;;;;;5056650;28;20032;-62
2022/01/02 02:08:10;;;;;;;317.52;139.68;;;3.40;99.90;;;;;;5074516;28;20556;-62
2022/01/02 02:10:40;;;;;;;285.63;134.80;;;3.40;99.90;;;;;;5056236;28;20044;-62
2022/01/02 02:13:09;;;;;;;259.02;121.40;;;3.50;99.90;;;;;;5056339;28;20044;-62
2022/01/02 02:15:40;;;;;;;;;;;3.40;99.90;;;;;;5090207;28;20059;-62
2022/01/02 02:18:07;;;;;;;290.70;132.18;;;3.30;99.90;;;;;;5089713;28;20046;-62
2022/01/02 02:20:36;;;;;;;272.10;127.50;;;3.30;99.90;;;;;;5056292;28;20127;-62
2022/01/02 02:23:08;;;;;;;276.08;130.68;;;3.30;99.90;;;;;;5056047;28;20498;-62
2022/01/02 02:25:39;;;;;;;273.58;127.22;;;3.30;99.90;;;;;;5074272;28;20470;-62
2022/01/02 02:28:15;;;;;;;264.98;123.85;;;3.20;99.90;;;;;;5039810;28;20390;-62
2022/01/02 02:30:47;;;;;;;224.63;109.80;;;3.20;99.90;;;;;;5056157;28;20037;-62
2022/01/02 02:33:15;;;;;;;262.38;125.05;;;3.10;99.90;;;;;;5056030;28;20127;-62
2022/01/02 02:35:44;;;;;;;257.20;115.85;;;3.10;99.90;;;;;;5057951;28;20391;-62
2022/01/02 02:38:11;;;;;;;255.60;117.00;;;3.10;99.90;;;;;;5043654;28;20036;-62
2022/01/02 02:40:39;;;;;;;252.45;117.68;;;3.10;99.90;;;;;;5060325;28;20036;-62
2022/01/02 02:43:20;;;;;;;259.13;118.40;;;3.10;99.90;;;;;;5060115;28;20111;-62
2022/01/02 02:51:24;;;;;;;234.35;110.40;;;3.10;99.90;;;;;;5059757;28;20068;-62
2022/01/02 02:53:53;;;;;;;287.00;135.60;;;3.10;99.90;;;;;;5077967;28;20060;-62
2022/01/02 02:56:26;;;;;;;308.60;135.45;;;3.10;99.90;;;;;;5060003;28;20479;-62
2022/01/02 02:58:57;;;;;;;268.15;126.18;;;3.20;99.90;;;;;;5059832;28;20391;-62
2022/01/02 03:01:28;;;;;;;254.10;119.57;;;3.10;99.90;;;;;;5059754;28;20040;-62
2022/01/02 03:03:56;;;;;;;232.85;110.32;;;3.10;99.90;;;;;;5059829;28;20082;-62
2022/01/02 03:06:23;;;;;;;221.15;106.30;;;3.00;99.90;;;;;;5059742;28;20055;-62
2022/01/02 03:08:51;;;;;;;225.07;105.90;;;3.00;99.90;;;;;;5077655;28;20052;-62
2022/01/02 03:11:20;;;;;;;196.63;96.22;;;3.10;99.90;;;;;;5059708;28;20028;-62
2022/01/02 03:13:49;;;;;;;195.45;92.85;;;3.00;99.90;;;;;;5059463;28;20242;-62
2022/01/02 03:16:16;;;;;;;238.07;115.97;;;3.00;99.90;;;;;;5077211;28;20051;-62
2022/01/02 03:18:42;;;;;;;217.43;102.65;;;3.00;99.90;;;;;;5077342;28;20048;-62
2022/01/02 03:21:09;;;;;;;226.60;103.05;;;3.00;99.90;;;;;;5077300;28;20383;-63
2022/01/02 03:23:36;;;;;;;178.63;87.45;;;3.00;99.90;;;;;;5059423;28;20032;-62
2022/01/02 03:26:02;;;;;;;183.43;88.30;;;3.00;99.90;;;;;;5059456;28;20056;-62
2022/01/02 03:28:28;;;;;;;164.90;78.47;;;3.00;99.90;;;;;;5059238;28;20100;-62
2022/01/02 03:30:54;;;;;;;154.13;73.13;;;3.00;99.90;;;;;;5077398;28;20134;-63
2022/01/02 03:33:21;;;;;;;150.75;75.80;;;2.90;99.90;;;;;;5095806;28;20036;-63
2022/01/02 03:35:48;;;;;;;138.75;69.07;;;2.90;99.90;;;;;;5079374;28;20088;-62
2022/01/02 03:38:14;;;;;;;178.07;82.43;;;2.90;99.90;;;;;;5079344;28;20032;-62
2022/01/02 03:40:41;;;;;;;182.10;88.45;;;3.00;99.90;;;;;;5079198;28;20035;-62
2022/01/02 03:43:07;;;;;;;189.32;88.55;;;3.10;99.90;;;;;;5097141;28;20390;-62
2022/01/02 03:45:34;;;;;;;172.20;80.20;;;3.20;99.90;;;;;;5079194;28;20441;-62
2022/01/02 03:48:00;;;;;;;158.43;76.15;;;3.20;99.90;;;;;;5079036;28;20039;-62
2022/01/02 03:50:26;;;;;;;167.27;77.13;;;3.20;99.90;;;;;;5097346;28;20051;-62
2022/01/02 03:52:52;;;;;;;174.35;81.00;;;3.20;99.90;;;;;;5079052;28;20043;-62
2022/01/02 03:55:19;;;;;;;177.45;82.38;;;3.10;99.90;;;;;;5097130;28;20044;-62
2022/01/02 03:57:45;;;;;;;159.80;73.25;;;3.10;99.90;;;;;;5078690;28;20051;-62
2022/01/02 04:00:14;;;;;;;182.55;81.18;;;3.10;99.90;;;;;;5078918;28;20450;-62
2022/01/02 04:02:40;;;;;;;182.73;81.90;;;3.10;99.90;;;;;;5097208;28;20063;-62
2022/01/02 04:05:09;;;;;;;176.57;87.25;;;3.10;99.90;;;;;;5078743;28;20043;-62
2022/01/02 04:07:36;;;;;;;179.45;87.38;;;3.10;99.90;;;;;;5097038;28;20032;-63
2022/01/02 04:10:08;;;;;;;168.00;77.43;;;3.10;99.90;;;;;;5096770;28;20036;-63
2022/01/02 04:12:35;;;;;;;171.60;76.47;;;3.00;99.90;;;;;;5071733;28;20036;-63
2022/01/02 04:15:04;;;;;;;159.13;72.20;;;2.90;99.90;;;;;;5058440;28;20060;-63
2022/01/02 04:17:32;;;;;;;168.38;81.15;;;2.90;99.90;;;;;;5058313;28;20039;-63
2022/01/02 04:20:01;;;;;;;178.38;85.97;;;3.00;99.90;;;;;;5058528;28;20036;-63
2022/01/02 04:22:27;;;;;;;157.43;73.70;;;2.90;99.90;;;;;;5058333;28;20092;-63
2022/01/02 04:24:53;;;;;;;145.60;67.47;;;2.90;99.90;;;;;;5057855;28;20044;-63
2022/01/02 04:27:20;;;;;;;164.32;75.72;;;2.90;99.90;;;;;;5058461;28;20379;-63
2022/01/02 04:29:47;;;;;;;182.82;85.75;;;2.80;99.90;;;;;;5058203;28;20060;-63
2022/01/02 04:32:14;;;;;;;170.80;78.70;;;2.80;99.90;;;;;;5057896;28;20405;-63
2022/01/02 04:34:43;;;;;;;143.02;69.05;;;2.80;99.90;;;;;;5058164;28;20062;-63
2022/01/02 04:37:11;;;;;;;141.07;68.95;;;2.80;99.90;;;;;;5058231;28;20087;-63
2022/01/02 04:39:38;;;;;;;129.15;65.45;;;2.70;99.90;;;;;;5057929;28;20039;-63
2022/01/02 04:42:06;;;;;;;149.32;67.40;;;2.70;99.90;;;;;;5075810;28;20048;-62
2022/01/02 04:44:32;;;;;;;165.43;77.68;;;2.70;99.90;;;;;;5057994;28;20394;-63
2022/01/02 04:46:59;;;;;;;164.07;75.22;;;2.60;99.90;;;;;;5075933;28;20039;-62
2022/01/02 04:49:26;;;;;;;145.07;68.80;;;2.80;99.90;;;;;;5058142;28;20104;-62
2022/01/02 04:51:53;;;;;;;152.35;70.70;;;2.80;99.90;;;;;;5057989;28;20064;-62
2022/01/02 04:54:22;;;;;;;175.88;83.32;;;2.80;99.90;;;;;;5057768;28;20486;-63
2022/01/02 04:56:48;;;;;;;168.13;80.47;;;2.70;99.90;;;;;;5057567;28;20041;-63
2022/01/02 04:59:15;;;;;;;164.43;75.85;;;2.60;99.90;;;;;;5056938;28;20269;-62
2022/01/02 05:01:41;;;;;;;173.73;79.65;;;2.60;99.90;;;;;;5075412;28;20064;-62
2022/01/02 05:04:07;;;;;;;159.63;74.82;;;2.50;99.90;;;;;;5057592;28;20032;-63
2022/01/02 05:06:33;;;;;;;144.80;68.20;;;2.60;99.90;;;;;;5075255;28;20068;-63
2022/01/02 05:09:02;;;;;;;134.77;67.65;;;2.50;99.90;;;;;;5057325;28;20041;-63
2022/01/02 05:11:29;;;;;;;140.43;68.90;;;2.50;99.90;;;;;;5057684;28;20036;-63
2022/01/02 05:13:55;;;;;;;139.38;67.38;;;2.40;99.90;;;;;;5057288;28;20075;-63
2022/01/02 05:16:21;;;;;;;149.63;70.65;;;2.40;99.90;;;;;;5075176;28;20044;-63
2022/01/02 05:18:47;;;;;;;132.60;63.00;;;2.40;99.90;;;;;;5060607;28;20645;-63
2022/01/02 05:21:14;;;;;;;128.27;61.40;;;2.40;99.90;;;;;;5053579;28;20052;-63
2022/01/02 05:23:41;;;;;;;146.88;64.47;;;2.40;99.90;;;;;;5075185;28;20032;-63
2022/01/02 05:26:07;;;;;;;138.60;63.92;;;2.40;99.90;;;;;;5057126;28;20082;-63
2022/01/02 05:28:34;;;;;;;138.00;62.63;;;2.40;99.90;;;;;;5056905;28;20521;-64
2022/01/02 05:31:00;;;;;;;144.60;70.95;;;2.30;99.90;;;;;;5057170;28;20482;-63
2022/01/02 05:33:26;;;;;;;156.38;71.05;;;2.30;99.90;;;;;;5075963;28;20042;-63
2022/01/02 05:35:53;;;;;;;141.55;68.93;;;2.30;99.90;;;;;;5076694;28;20048;-63
2022/01/02 05:38:19;;;;;;;137.73;64.75;;;2.30;99.90;;;;;;5077069;28;20064;-63
2022/01/02 05:40:47;;;;;;;158.20;73.20;;;2.40;99.90;;;;;;5076847;28;20042;-63
2022/01/02 05:43:15;;;;;;;161.07;74.15;;;2.40;99.90;;;;;;5076817;28;20077;-63
2022/01/02 05:45:41;;;;;;;159.60;73.85;;;2.30;99.90;;;;;;5076953;28;20378;-63
2022/01/02 05:48:08;;;;;;;141.52;66.90;;;2.10;99.90;;;;;;5076663;28;20035;-63
2022/01/02 05:50:34;;;;;;;149.20;67.15;;;2.10;99.90;;;;;;5076647;28;20038;-63
2022/01/02 05:53:01;;;;;;;151.85;71.50;;;2.10;99.90;;;;;;5076849;28;20048;-63
2022/01/02 05:55:27;;;;;;;148.30;70.53;;;2.10;99.90;;;;;;5076842;28;20036;-63
2022/01/02 05:57:53;;;;;;;158.60;69.53;;;2.10;99.90;;;;;;5094905;28;20044;-63
2022/01/02 06:00:19;;;;;;;147.10;68.20;;;2.10;99.90;;;;;;5094838;28;20509;-63
2022/01/02 06:02:52;;;;;;;143.73;63.47;;;2.00;99.90;;;;;;5093347;28;20035;-63
2022/01/02 06:05:18;;;;;;;150.43;68.53;;;2.00;99.90;;;;;;5076521;28;20434;-63
2022/01/02 06:07:44;;;;;;;142.35;65.32;;;2.10;99.90;;;;;;5076397;28;20062;-63
2022/01/02 06:10:10;;;;;;;141.32;64.32;;;2.10;99.90;;;;;;5076318;28;20036;-63
2022/01/02 06:12:37;;;;;;;141.35;62.53;;;2.00;99.90;;;;;;5069436;28;20536;-63
2022/01/02 06:15:06;;;;;;;154.23;69.75;;;2.00;99.90;;;;;;5056542;28;20529;-63
2022/01/02 06:17:33;;;;;;;141.13;63.83;;;1.90;99.90;;;;;;5052730;28;20037;-63
2022/01/02 06:20:00;;;;;;;151.05;66.20;;;1.80;99.90;;;;;;5056267;28;20402;-63
2022/01/02 06:22:26;;;;;;;134.43;61.90;;;1.90;99.90;;;;;;5056240;28;20055;-63
2022/01/02 06:24:52;;;;;;;151.13;66.00;;;1.90;99.90;;;;;;5056060;28;20043;-63
2022/01/02 06:27:19;;;;;;;146.00;63.67;;;1.90;99.90;;;;;;5074604;28;20481;-63
2022/01/02 06:29:47;;;;;;;137.93;63.95;;;1.90;99.90;;;;;;5056333;28;20033;-63
2022/01/02 06:32:13;;;;;;;135.95;63.00;;;1.80;99.90;;;;;;5064943;28;20501;-63
2022/01/02 06:34:39;;;;;;;135.60;63.70;;;1.70;99.90;;;;;;5076327;28;20505;-63
2022/01/02 06:37:06;;;;;;;132.25;61.50;;;1.70;99.90;;;;;;5076448;28;20071;-63
2022/01/02 06:39:32;;;;;;;122.63;59.78;;;1.80;99.90;;;;;;5076124;28;20122;-64
2022/01/02 06:41:58;;;;;;;124.63;58.10;;;1.80;99.90;;;;;;5094241;28;20032;-63
2022/01/02 06:44:24;;;;;;;133.23;64.63;;;1.90;99.90;;;;;;5076168;28;20123;-63
2022/01/02 06:46:50;;;;;;;138.85;64.43;;;1.90;99.90;;;;;;5076021;28;20036;-63
2022/01/02 06:49:17;;;;;;;123.25;58.45;;;1.90;99.90;;;;;;5076115;28;20090;-63
2022/01/02 06:51:43;;;;;;;117.07;58.83;;;1.90;99.90;;;;;;5076149;28;20245;-63
2022/01/02 06:54:08;;;;;;;130.52;59.28;;;2.00;99.90;;;;;;5075888;28;20047;-63
2022/01/02 06:56:34;;;;;;;144.82;63.28;;;2.10;99.90;;;;;;5076105;28;20040;-63
2022/01/02 06:59:01;;;;;;;126.75;59.33;;;2.10;99.90;;;;;;5094206;28;20075;-63
2022/01/02 07:01:27;;;;;;;137.40;68.13;;;2.20;99.90;;;;;;5076017;28;20043;-63
2022/01/02 07:03:53;;;;;;;135.57;64.50;;;2.20;99.90;;;;;;5076219;28;20041;-63
2022/01/02 07:06:19;;;;;;;141.18;66.75;;;2.30;99.90;;;;;;5075968;28;20127;-63
2022/01/02 07:08:45;;;;;;;169.65;75.10;;;2.40;99.90;;;;;;5075706;28;20123;-63
2022/01/02 07:11:11;;;;;;;155.95;70.75;;;2.50;99.90;;;;;;5094088;28;20060;-63
2022/01/02 07:13:40;;;;;;;146.95;69.85;;;2.60;99.90;;;;;;5078180;28;20039;-63
2022/01/02 07:16:06;;;;;;;139.27;65.97;;;2.80;99.90;;;;;;5073461;28;20059;-64
2022/01/02 07:18:32;;;;;;;135.40;61.63;;;3.10;99.90;;;;;;5061147;28;20045;-63
2022/01/02 07:20:57;;;;;;;120.25;58.20;;;3.20;99.90;;;;;;5053961;28;20041;-63
2022/01/02 07:23:23;;;;;;;118.60;54.55;;;3.30;99.90;;;;;;5057425;28;20049;-63
2022/01/02 07:25:49;;;;;;;128.00;60.10;;;3.50;99.90;;;;;;5057415;28;20041;-63
2022/01/02 07:28:15;;;;;;;133.40;62.28;;;3.70;99.90;;;;;;5057130;28;20021;-63
2022/01/02 07:30:41;;;;;;;129.50;60.58;;;4.20;99.90;;;;;;5057542;28;20043;-63
2022/01/02 07:33:07;;;;;;;112.35;49.65;;;4.80;99.90;;;;;;5055921;28;20036;-63
2022/01/02 07:35:33;;;;;;;99.20;49.50;;;5.30;99.90;;;;;;5057167;28;20044;-64
2022/01/02 07:37:59;;;;;;;120.20;54.83;;;5.50;99.90;;;;;;5057195;28;20037;-64
2022/01/02 07:40:25;;;;;;;94.63;45.28;;;6.20;99.90;;;;;;5057191;28;20152;-64
2022/01/02 07:42:52;;;;;;;86.32;42.97;;;6.60;99.90;;;;;;5056700;28;20368;-64
2022/01/02 07:45:23;;;;;;;83.20;44.00;;;7.20;99.90;;;;;;5039078;28;20037;-64
2022/01/02 07:47:49;;;;;;;93.53;43.65;;;7.80;99.90;;;;;;5057058;28;20537;-64
2022/01/02 07:50:15;;;;;;;99.75;50.92;;;8.30;99.90;;;;;;5056755;28;20044;-64
2022/01/02 07:52:41;;;;;;;100.80;55.13;;;8.30;99.90;;;;;;5054393;28;20036;-64
2022/01/02 07:55:07;;;;;;;119.55;60.85;;;8.40;99.90;;;;;;5056875;28;20458;-64
2022/01/02 07:57:34;;;;;;;129.70;63.15;;;8.60;99.90;;;;;;5056542;28;20441;-64
2022/01/02 08:00:00;;;;;;;130.68;64.75;;;8.50;99.90;;;;;;5056904;28;20537;-64
2022/01/02 08:02:26;;;;;;;114.82;61.08;;;7.80;99.90;;;;;;5056811;28;20119;-64
2022/01/02 08:04:52;;;;;;;107.15;59.60;;;7.90;99.90;;;;;;5056613;28;20062;-65
2022/01/02 08:07:18;;;;;;;119.65;61.88;;;8.50;99.90;;;;;;5056970;28;20029;-65
2022/01/02 08:09:44;;;;;;;112.88;63.60;;;8.80;99.90;;;;;;5056726;28;20425;-65
2022/01/02 08:12:10;;;;;;;122.32;62.70;;;9.00;99.90;;;;;;5041907;28;20433;-65
2022/01/02 08:14:36;;;;;;;132.73;68.13;;;9.60;99.90;;;;;;5076347;28;20091;-65
2022/01/02 08:17:02;;;;;;;120.72;65.15;;;10.10;99.90;;;;;;5076226;28;20119;-65
2022/01/02 08:19:28;;;;;;;108.60;60.90;;;10.60;99.90;;;;;;5056257;28;20035;-66
2022/01/02 08:21:55;;;;;;;111.95;58.83;;;10.60;99.90;;;;;;5056122;28;20036;-66
2022/01/02 08:24:21;;;;;;;110.18;63.03;;;11.40;99.90;;;;;;5038435;28;20051;-66
2022/01/02 08:26:49;;;;;;;120.22;66.03;;;11.50;99.90;;;;;;5056255;28;20049;-66
2022/01/02 08:29:17;;;;;;;108.35;61.63;;;12.50;99.30;;;;;;5042096;28;20057;-66
2022/01/02 08:31:45;;;;;;;121.15;65.75;;;12.10;99.90;;;;;;5045710;28;20163;-66
2022/01/02 08:34:11;;;;;;;120.78;67.18;;;12.30;98.80;;;;;;5074995;28;20102;-66
2022/01/02 08:36:38;;;;;;;147.38;77.95;;;12.50;99.20;;;;;;5063400;28;20483;-66
2022/01/02 08:39:05;;;;;;;123.80;69.45;;;12.60;99.50;;;;;;5055836;28;20041;-66
2022/01/02 08:41:31;;;;;;;114.50;66.63;;;13.60;97.70;;;;;;5055807;28;20195;-66
2022/01/02 08:43:59;;;;;;;125.63;69.63;;;13.80;98.00;;;;;;5055979;28;20029;-66
2022/01/02 08:46:29;;;;;;;119.45;70.68;;;13.30;98.00;;;;;;5055850;28;20491;-66
2022/01/02 08:48:55;;;;;;;126.32;72.80;;;12.90;97.60;;;;;;5055845;28;20112;-65
2022/01/02 08:51:21;;;;;;;138.48;77.82;;;12.00;99.90;;;;;;5055886;28;20041;-63
2022/01/02 08:53:48;;;;;;;139.57;82.50;;;13.00;99.20;;;;;;5055678;28;20036;-62
2022/01/02 08:56:15;;;;;;;139.52;83.15;;;12.80;99.10;;;;;;5055738;28;20067;-63
2022/01/02 08:58:41;;;;;;;156.23;87.18;;;13.10;99.60;;;;;;5055757;28;20394;-63
2022/01/02 09:01:07;;;;;;;159.63;96.65;;;13.80;97.80;;;;;;5055456;28;20037;-63
2022/01/02 09:03:34;;;;;;;171.32;102.35;;;13.50;98.50;;;;;;5055558;28;20333;-63
2022/01/02 09:06:00;;;;;;;166.52;96.40;;;13.80;97.60;;;;;;5055566;28;20044;-63
2022/01/02 09:08:26;;;;;;;176.13;100.55;;;14.60;96.20;;;;;;5055599;28;20491;-63
2022/01/02 09:10:52;;;;;;;150.05;90.55;;;15.10;94.10;;;;;;5055328;28;20060;-63
2022/01/02 09:13:21;;;;;;;148.07;91.50;;;15.00;95.20;;;;;;5055325;28;20041;-63
2022/01/02 09:15:49;;;;;;;151.52;86.68;;;15.50;94.30;;;;;;5065516;28;20135;-63
2022/01/02 09:18:16;;;;;;;131.82;85.50;;;15.90;92.90;;;;;;5057253;28;20032;-63
2022/01/02 09:20:43;;;;;;;133.30;84.10;;;16.20;92.10;;;;;;5075393;28;20045;-63
2022/01/02 09:23:10;;;;;;;132.85;83.30;;;16.00;92.20;;;;;;5074872;28;20029;-63
2022/01/02 09:25:37;;;;;;;129.55;81.82;;;15.50;94.10;;;;;;5075202;28;20036;-63
2022/01/02 09:28:03;;;;;;;133.60;80.95;;;15.40;94.50;;;;;;5075317;28;20049;-63
2022/01/02 09:30:29;;;;;;;132.95;80.53;;;15.00;96.00;;;;;;5075079;28;20037;-63
2022/01/02 09:32:57;;;;;;;117.45;76.35;;;14.80;97.70;;;;;;5089996;28;20127;-63
2022/01/02 09:35:23;;;;;;;133.25;78.45;;;15.80;95.80;;;;;;5095122;28;20047;-63
2022/01/02 09:37:49;;;;;;;127.47;78.57;;;15.90;94.80;;;;;;5095169;28;20045;-63
2022/01/02 09:40:16;;;;;;;124.78;78.22;;;16.10;94.30;;;;;;5094468;28;20390;-63
2022/01/02 09:42:42;;;;;;;115.18;74.72;;;15.90;95.40;;;;;;5094923;28;20123;-63
2022/01/02 09:45:09;;;;;;;135.93;79.28;;;16.40;94.20;;;;;;5094325;28;20105;-63
2022/01/02 09:47:36;;;;;;;129.70;75.25;;;16.20;94.70;;;;;;5095157;28;20066;-63
2022/01/02 09:50:07;;;;;;;131.23;77.72;;;16.70;92.70;;;;;;5095083;28;20036;-63
2022/01/02 09:52:34;;;;;;;128.93;79.07;;;16.30;93.70;;;;;;5094849;28;20505;-63
2022/01/02 09:55:00;;;;;;;125.70;82.03;;;16.20;94.80;;;;;;5095060;28;20398;-63
2022/01/02 09:57:27;;;;;;;126.70;78.78;;;16.90;94.00;;;;;;5094845;28;20032;-63
2022/01/02 09:59:55;;;;;;;127.93;80.60;;;17.60;91.70;;;;;;5094874;28;20040;-63
2022/01/02 10:02:23;;;;;;;119.28;74.90;;;17.80;91.10;;;;;;5094671;28;20097;-63
2022/01/02 10:04:58;;;;;;;121.68;77.97;;;17.90;89.60;;;;;;5094697;28;20032;-63
2022/01/02 10:07:28;;;;;;;123.57;75.10;;;18.30;85.00;;;;;;5094759;28;20024;-64
2022/01/02 10:09:55;;;;;;;129.02;79.75;;;19.00;82.70;;;;;;5094403;28;20101;-64
2022/01/02 10:12:28;;;;;;;137.32;77.95;;;18.70;81.10;;;;;;5089724;28;20286;-64
2022/01/02 10:15:06;;;;;;;121.15;77.38;;;19.10;81.80;;;;;;5074166;28;20041;-64
2022/01/02 10:18:04;;;;;;;115.53;75.07;;;19.40;81.70;;;;;;5070040;28;20036;-64
2022/01/02 10:20:39;;;;;;;114.75;72.60;;;19.30;76.80;;;;;;5054108;28;20107;-64
2022/01/02 10:23:08;;;;;;;112.85;71.78;;;19.20;78.40;;;;;;5052776;28;20033;-62
2022/01/02 10:25:44;;;;;;;;;;;19.60;75.60;;;;;;5054612;28;20040;-63
2022/01/02 10:28:38;;;;;;;101.18;64.90;;;19.40;77.00;;;;;;5054192;28;19947;-63
2022/01/02 10:31:10;;;;;;;104.28;69.80;;;19.20;80.60;;;;;;5052662;28;20045;-63
2022/01/02 10:33:59;;;;;;;110.28;73.57;;;19.60;78.40;;;;;;5053878;28;20033;-64
2022/01/02 10:36:28;;;;;;;115.00;74.72;;;18.90;90.00;;;;;;5054170;28;20041;-64
2022/01/02 10:39:07;;;;;;;114.75;74.40;;;19.60;84.40;;;;;;5054238;28;20037;-64
2022/01/02 10:41:34;;;;;;;116.15;76.07;;;20.10;78.70;;;;;;5053913;28;20510;-64
2022/01/02 10:44:29;;;;;;;102.45;64.22;;;19.40;81.00;;;;;;5053877;28;20128;-64
2022/01/02 10:47:15;;;;;;;120.47;68.15;;;19.90;80.70;;;;;;5051658;28;20119;-65
2022/01/02 10:49:52;;;;;;;106.38;67.88;;;19.90;76.70;;;;;;5053972;28;20314;-62
2022/01/02 10:52:25;;;;;;;124.40;76.20;;;20.10;78.40;;;;;;5053941;28;20449;-63
2022/01/02 10:54:52;;;;;;;121.65;80.43;;;20.60;77.30;;;;;;5053920;28;20044;-63
2022/01/02 10:57:20;;;;;;;123.90;80.80;;;20.20;77.00;;;;;;5056557;28;20033;-63
2022/01/02 10:59:46;;;;;;;118.53;81.68;;;20.10;79.50;;;;;;5057983;28;20033;-63
2022/01/02 11:02:15;;;;;;;114.53;74.13;;;20.00;81.90;;;;;;5057820;28;20041;-63
2022/01/02 11:05:04;;;;;;;114.47;73.63;;;20.10;81.40;;;;;;5058010;28;20035;-64
2022/01/02 11:07:52;;;;;;;114.05;74.13;;;20.50;80.20;;;;;;5091251;28;20079;-64
2022/01/02 11:10:30;;;;;;;113.82;74.70;;;20.50;78.10;;;;;;5117855;28;20440;-64
2022/01/02 11:12:58;;;;;;;111.68;71.43;;;21.10;73.50;;;;;;5118320;28;20043;-64
2022/01/02 11:15:28;;;;;;;107.57;66.45;;;21.10;69.40;;;;;;5116966;28;20079;-64
2022/01/02 11:17:55;;;;;;;;;;;21.10;74.50;;;;;;5118583;28;20027;-64
2022/01/02 11:20:33;;;;;;;116.40;71.13;;;21.00;70.90;;;;;;5118350;28;19914;-64
2022/01/02 11:22:59;;;;;;;111.47;71.10;;;21.00;73.50;;;;;;5138984;27;20480;-64
2022/01/02 11:26:00;;;;;;;104.28;66.20;;;21.60;67.70;;;;;;5138989;27;20036;-65
2022/01/02 11:28:38;;;;;;;114.38;72.15;;;21.40;69.20;;;;;;5139018;27;20354;-65
2022/01/02 11:31:07;;;;;;;113.70;70.50;;;21.10;68.50;;;;;;5138485;27;20047;-65
2022/01/02 11:33:37;;;;;;;106.95;68.47;;;20.80;74.10;;;;;;5117892;28;20314;-65
2022/01/02 11:36:41;;;;;;;106.47;66.85;;;20.80;71.40;;;;;;5117874;28;20059;-65
2022/01/02 11:39:22;;;;;;;95.30;63.85;;;21.80;66.20;;;;;;5054304;28;20041;-65
2022/01/02 11:41:51;;;;;;;96.85;62.63;;;22.00;62.30;;;;;;5054633;28;20052;-64
2022/01/02 11:47:41;;;;;;;108.38;64.47;;;22.30;61.90;;;;;;5054282;28;20055;-64
2022/01/02 11:50:35;;;;;;;88.15;55.03;;;22.80;59.20;;;;;;5038111;28;20041;-65
2022/01/02 11:53:13;;;;;;;85.90;50.78;;;23.30;53.80;;;;;;5054262;28;20032;-64
2022/01/02 11:55:41;;;;;;;81.30;47.65;;;23.30;55.20;;;;;;5054706;28;20080;-65
2022/01/02 11:58:09;;;;;;;72.20;46.15;;;23.20;52.30;;;;;;5038090;28;20123;-65
2022/01/02 12:00:48;;;;;;;78.72;46.03;;;23.20;51.20;;;;;;5054272;28;20457;-65
2022/01/02 12:03:46;;;;;;;76.35;46.85;;;23.10;53.30;;;;;;5054445;28;20556;-65
2022/01/02 12:06:24;;;;;;;70.78;44.13;;;23.50;52.30;;;;;;5047368;28;20041;-65
2022/01/02 12:08:53;;;;;;;75.35;46.25;;;23.80;51.50;;;;;;5054002;28;20037;-65
2022/01/02 12:11:43;;;;;;;68.47;43.83;;;23.20;52.60;;;;;;5054317;28;20152;-65
2022/01/02 12:14:15;;;;;;;75.43;45.13;;;23.80;51.00;;;;;;5093797;28;20047;-65
2022/01/02 12:16:49;;;;;;;75.05;47.08;;;23.60;51.30;;;;;;5096894;28;20497;-65
2022/01/02 12:19:15;;;;;;;80.80;47.05;;;24.00;49.40;;;;;;5096937;28;20093;-65
2022/01/02 12:22:14;;;;;;;75.05;48.72;;;23.90;49.70;;;;;;5096617;28;20040;-65
2022/01/02 12:24:42;;;;;;;83.85;50.88;;;23.70;49.90;;;;;;5096634;28;20398;-65
2022/01/02 12:27:14;;;;;;;79.10;47.85;;;23.80;48.60;;;;;;5095734;28;20390;-65
2022/01/02 12:29:40;;;;;;;79.63;48.40;;;24.10;48.90;;;;;;5096506;28;20036;-65
2022/01/02 12:32:07;;;;;;;72.70;45.25;;;23.90;49.20;;;;;;5096840;28;20040;-65
2022/01/02 12:34:34;;;;;;;81.40;48.80;;;23.60;49.00;;;;;;5096260;28;20050;-65
2022/01/02 12:37:00;;;;;;;71.68;44.83;;;23.80;49.20;;;;;;5096415;28;20044;-64
2022/01/02 12:39:35;;;;;;;84.53;53.83;;;24.30;47.80;;;;;;5096303;28;20469;-64
2022/01/02 12:42:06;;;;;;;84.05;54.47;;;24.80;49.30;;;;;;5096432;28;20066;-64